createdAt,value
2023-07-03T00:00:15.663Z,18.38
2023-07-03T00:02:43.776Z,18.37
2023-07-03T00:05:11.561Z,18.27
2023-07-03T00:07:39.652Z,18.25
2023-07-03T00:10:07.429Z,18.29
2023-07-03T00:12:34.043Z,18.33
2023-07-03T00:15:00.801Z,18.19
2023-07-03T00:17:27.532Z,18.28
2023-07-03T00:19:54.319Z,18.24
2023-07-03T00:22:22.147Z,18.17
2023-07-03T00:24:48.772Z,18.14
2023-07-03T00:27:15.554Z,18.01
2023-07-03T00:29:42.145Z,18.04
2023-07-03T00:32:08.799Z,18.11
2023-07-03T00:34:35.272Z,17.94
2023-07-03T00:37:03.256Z,18.02
2023-07-03T00:39:29.938Z,18.01
2023-07-03T00:41:56.566Z,17.98
2023-07-03T00:44:24.432Z,17.96
2023-07-03T00:46:53.082Z,17.95
2023-07-03T00:49:21.694Z,17.92
2023-07-03T00:51:53.705Z,17.94
2023-07-03T00:54:20.616Z,17.95
2023-07-03T00:56:47.689Z,17.86
2023-07-03T00:59:16.220Z,17.76
2023-07-03T01:01:50.352Z,17.77
2023-07-03T01:04:31.593Z,17.81
2023-07-03T01:07:09.331Z,17.70
2023-07-03T01:09:44.582Z,17.71
2023-07-03T01:12:11.938Z,17.61
2023-07-03T01:14:40.605Z,17.65
2023-07-03T01:17:12.498Z,17.63
2023-07-03T01:19:45.520Z,17.55
2023-07-03T01:22:24.457Z,17.52
2023-07-03T01:25:16.290Z,17.53
2023-07-03T01:28:05.084Z,17.51
2023-07-03T01:30:56.068Z,17.52
2023-07-03T01:33:45.828Z,17.51
2023-07-03T01:36:34.475Z,17.46
2023-07-03T01:39:21.529Z,17.45
2023-07-03T01:41:49.449Z,17.53
2023-07-03T01:44:16.383Z,17.47
2023-07-03T01:46:42.952Z,17.42
2023-07-03T01:49:14.844Z,17.46
2023-07-03T01:51:59.280Z,17.46
2023-07-03T01:54:32.273Z,17.46
2023-07-03T01:57:01.290Z,17.46
2023-07-03T01:59:30.944Z,17.49
2023-07-03T02:02:06.202Z,17.53
2023-07-03T02:04:44.056Z,17.59
2023-07-03T02:07:12.916Z,17.59
2023-07-03T02:09:41.108Z,17.53
2023-07-03T02:12:11.022Z,17.48
2023-07-03T02:14:39.171Z,17.50
2023-07-03T02:17:07.541Z,17.51
2023-07-03T02:19:34.413Z,17.55
2023-07-03T02:22:01.579Z,17.55
2023-07-03T02:24:28.357Z,17.53
2023-07-03T02:26:55.385Z,17.53
2023-07-03T02:29:21.860Z,17.46
2023-07-03T02:31:48.448Z,17.53
2023-07-03T02:34:15.873Z,17.47
2023-07-03T02:36:42.644Z,17.54
2023-07-03T02:39:10.565Z,17.57
2023-07-03T02:41:37.382Z,17.57
2023-07-03T02:44:04.227Z,17.44
2023-07-03T02:46:33.345Z,17.47
2023-07-03T02:49:00.038Z,17.47
2023-07-03T02:51:27.149Z,17.57
2023-07-03T02:53:57.467Z,17.49
2023-07-03T02:56:24.450Z,17.54
2023-07-03T02:58:51.012Z,17.58
2023-07-03T03:01:23.293Z,17.59
2023-07-03T03:03:50.635Z,17.53
2023-07-03T03:06:17.371Z,17.55
2023-07-03T03:08:43.964Z,17.53
2023-07-03T03:11:10.761Z,17.52
2023-07-03T03:13:37.883Z,17.50
2023-07-03T03:16:04.964Z,17.41
2023-07-03T03:18:31.579Z,17.38
2023-07-03T03:20:58.372Z,17.43
2023-07-03T03:23:24.943Z,17.41
2023-07-03T03:25:51.770Z,17.38
2023-07-03T03:28:18.476Z,17.42
2023-07-03T03:30:46.703Z,17.40
2023-07-03T03:33:13.481Z,17.46
2023-07-03T03:35:40.141Z,17.47
2023-07-03T03:38:06.735Z,17.40
2023-07-03T03:40:33.468Z,17.37
2023-07-03T03:43:00.145Z,17.43
2023-07-03T03:45:26.638Z,17.42
2023-07-03T03:47:53.668Z,17.36
2023-07-03T03:50:20.308Z,17.40
2023-07-03T03:52:47.083Z,17.43
2023-07-03T03:55:13.829Z,17.41
2023-07-03T03:57:40.502Z,17.32
2023-07-03T04:00:16.560Z,17.34
2023-07-03T04:02:44.313Z,17.38
2023-07-03T04:05:12.503Z,17.35
2023-07-03T04:07:40.053Z,17.41
2023-07-03T04:10:07.225Z,17.36
2023-07-03T04:12:33.840Z,17.36
2023-07-03T04:15:00.393Z,17.39
2023-07-03T04:17:27.035Z,17.46
2023-07-03T04:19:53.523Z,17.35
2023-07-03T04:22:20.196Z,17.36
2023-07-03T04:24:46.667Z,17.34
2023-07-03T04:27:13.231Z,17.30
2023-07-03T04:29:39.808Z,17.34
2023-07-03T04:32:06.584Z,17.33
2023-07-03T04:34:33.229Z,17.36
2023-07-03T04:36:59.807Z,17.31
2023-07-03T04:39:26.765Z,17.34
2023-07-03T04:41:53.385Z,17.34
2023-07-03T04:44:20.004Z,17.33
2023-07-03T04:46:47.213Z,17.39
2023-07-03T04:49:13.808Z,17.38
2023-07-03T04:51:41.049Z,17.41
2023-07-03T04:54:07.616Z,17.40
2023-07-03T04:56:35.266Z,17.49
2023-07-03T04:59:01.844Z,17.42
2023-07-03T05:01:31.198Z,17.52
2023-07-03T05:03:58.340Z,17.54
2023-07-03T05:06:25.673Z,17.52
2023-07-03T05:08:52.507Z,17.58
2023-07-03T05:11:19.169Z,17.46
2023-07-03T05:13:45.660Z,17.38
2023-07-03T05:16:12.168Z,17.42
2023-07-03T05:18:38.801Z,17.37
2023-07-03T05:21:07.410Z,17.45
2023-07-03T05:23:34.075Z,17.38
2023-07-03T05:26:00.552Z,17.47
2023-07-03T05:28:27.497Z,17.57
2023-07-03T05:30:59.646Z,17.50
2023-07-03T05:33:28.601Z,17.61
2023-07-03T05:35:56.092Z,17.71
2023-07-03T05:38:22.994Z,17.75
2023-07-03T05:40:51.375Z,17.66
2023-07-03T05:43:19.639Z,17.60
2023-07-03T05:45:49.511Z,17.61
2023-07-03T05:48:16.708Z,17.57
2023-07-03T05:50:43.304Z,17.50
2023-07-03T05:53:10.376Z,17.64
2023-07-03T05:55:36.900Z,17.70
2023-07-03T05:58:04.054Z,17.87
2023-07-03T06:00:32.015Z,17.80
2023-07-03T06:03:00.417Z,17.97
2023-07-03T06:05:27.309Z,17.82
2023-07-03T06:07:53.973Z,17.91
2023-07-03T06:10:20.524Z,18.07
2023-07-03T06:12:47.097Z,18.21
2023-07-03T06:15:13.592Z,18.06
2023-07-03T06:17:41.876Z,17.93
2023-07-03T06:20:11.676Z,18.03
2023-07-03T06:22:42.907Z,18.22
2023-07-03T06:25:10.962Z,18.27
2023-07-03T06:27:37.644Z,18.31
2023-07-03T06:30:04.719Z,18.28
2023-07-03T06:32:31.425Z,18.20
2023-07-03T06:34:58.067Z,18.28
2023-07-03T06:37:24.773Z,18.16
2023-07-03T06:39:51.247Z,18.25
2023-07-03T06:42:17.761Z,18.30
2023-07-03T06:44:54.171Z,18.30
2023-07-03T06:47:20.682Z,18.25
2023-07-03T06:49:47.206Z,18.32
2023-07-03T06:52:13.694Z,18.30
2023-07-03T06:54:40.296Z,18.23
2023-07-03T06:57:06.846Z,18.17
2023-07-03T06:59:33.418Z,18.36
2023-07-03T07:01:59.983Z,18.32
2023-07-03T07:04:29.570Z,18.54
2023-07-03T07:06:56.998Z,18.24
2023-07-03T07:09:23.968Z,18.05
2023-07-03T07:11:50.694Z,18.15
2023-07-03T07:14:18.621Z,18.04
2023-07-03T07:16:45.281Z,18.23
2023-07-03T07:19:12.958Z,18.37
2023-07-03T07:21:42.324Z,18.34
2023-07-03T07:24:23.342Z,18.50
2023-07-03T07:26:51.562Z,18.48
2023-07-03T07:29:18.403Z,18.45
2023-07-03T07:31:44.894Z,18.49
2023-07-03T07:34:12.429Z,18.77
2023-07-03T07:36:40.647Z,18.64
2023-07-03T07:39:08.374Z,18.82
2023-07-03T07:41:35.419Z,18.76
2023-07-03T07:44:02.097Z,18.79
2023-07-03T07:46:31.598Z,19.11
2023-07-03T07:49:00.253Z,18.97
2023-07-03T07:51:27.344Z,19.04
2023-07-03T07:53:54.891Z,19.09
2023-07-03T07:56:23.010Z,19.21
2023-07-03T07:58:50.228Z,18.90
2023-07-03T08:01:17.276Z,19.02
2023-07-03T08:03:44.687Z,19.51
2023-07-03T08:06:11.938Z,19.76
2023-07-03T08:08:38.620Z,19.58
2023-07-03T08:11:07.229Z,19.18
2023-07-03T08:13:34.901Z,19.40
2023-07-03T08:16:01.687Z,19.18
2023-07-03T08:18:28.534Z,19.37
2023-07-03T08:20:55.564Z,19.59
2023-07-03T08:23:22.667Z,19.81
2023-07-03T08:25:55.390Z,19.84
2023-07-03T08:28:23.111Z,20.02
2023-07-03T08:30:50.170Z,19.96
2023-07-03T08:33:17.295Z,19.82
2023-07-03T08:38:14.059Z,19.76
2023-07-03T08:40:42.064Z,19.81
2023-07-03T08:43:12.501Z,19.96
2023-07-03T08:45:43.852Z,19.59
2023-07-03T08:48:16.966Z,19.61
2023-07-03T08:50:47.633Z,19.42
2023-07-03T08:53:19.121Z,19.80
2023-07-03T08:56:21.475Z,19.33
2023-07-03T08:58:51.915Z,19.30
2023-07-03T09:01:21.957Z,19.34
2023-07-03T09:04:24.205Z,19.77
2023-07-03T09:06:59.318Z,19.74
2023-07-03T09:09:40.966Z,19.47
2023-07-03T09:12:29.752Z,19.42
2023-07-03T09:15:07.783Z,19.61
2023-07-03T09:17:35.934Z,19.74
2023-07-03T09:20:05.587Z,19.61
2023-07-03T09:22:40.522Z,20.05
2023-07-03T09:25:15.665Z,20.03
2023-07-03T09:27:42.884Z,20.24
2023-07-03T09:30:15.111Z,20.19
2023-07-03T09:32:41.936Z,20.42
2023-07-03T09:35:17.003Z,20.62
2023-07-03T09:37:47.100Z,20.22
2023-07-03T09:40:24.901Z,20.22
2023-07-03T09:42:52.209Z,20.16
2023-07-03T09:45:22.213Z,19.97
2023-07-03T09:47:51.803Z,20.09
2023-07-03T09:50:27.284Z,20.25
2023-07-03T09:55:27.725Z,19.85
2023-07-03T09:57:54.864Z,20.09
2023-07-03T10:00:24.996Z,19.99
2023-07-03T10:08:03.830Z,19.76
2023-07-03T10:13:15.290Z,19.85
2023-07-03T10:15:43.088Z,19.75
2023-07-03T10:18:21.889Z,19.98
2023-07-03T10:20:51.308Z,20.17
2023-07-03T10:23:40.335Z,20.17
2023-07-03T10:26:29.720Z,20.50
2023-07-03T10:29:04.531Z,20.75
2023-07-03T10:31:37.886Z,20.93
2023-07-03T10:34:13.794Z,20.97
2023-07-03T10:36:42.899Z,21.99
2023-07-03T10:39:19.283Z,21.95
2023-07-03T10:41:51.605Z,22.02
2023-07-03T10:44:23.213Z,22.20
2023-07-03T10:46:59.932Z,22.15
2023-07-03T10:49:30.915Z,22.35
2023-07-03T10:52:22.623Z,21.74
2023-07-03T10:55:25.667Z,22.42
2023-07-03T10:58:01.175Z,21.65
2023-07-03T11:00:39.918Z,21.98
2023-07-03T11:03:31.114Z,21.71
2023-07-03T11:06:33.602Z,21.85
2023-07-03T11:09:23.469Z,21.57
2023-07-03T11:12:16.514Z,21.81
2023-07-03T11:14:46.078Z,22.26
2023-07-03T11:17:26.596Z,22.28
2023-07-03T11:19:53.106Z,22.01
2023-07-03T11:25:11.730Z,21.15
2023-07-03T11:27:54.891Z,21.67
2023-07-03T11:30:22.701Z,21.51
2023-07-03T11:32:51.083Z,21.36
2023-07-03T11:40:37.528Z,20.95
2023-07-03T11:45:40.188Z,21.38
2023-07-03T11:48:39.416Z,21.14
2023-07-03T11:51:15.835Z,21.16
2023-07-03T11:53:57.357Z,21.28
2023-07-03T11:56:45.466Z,21.45
2023-07-03T11:59:24.537Z,21.57
2023-07-03T12:01:52.965Z,21.43
2023-07-03T12:04:47.757Z,21.49
2023-07-03T12:07:22.926Z,21.61
2023-07-03T12:09:50.998Z,21.76
2023-07-03T12:12:26.814Z,22.00
2023-07-03T12:14:59.271Z,21.83
2023-07-03T12:17:28.954Z,21.82
2023-07-03T12:20:07.791Z,22.06
2023-07-03T12:22:46.618Z,21.97
2023-07-03T12:25:19.787Z,22.01
2023-07-03T12:27:47.759Z,22.20
2023-07-03T12:30:29.341Z,22.54
2023-07-03T12:32:58.412Z,22.68
2023-07-03T12:35:35.449Z,23.06
2023-07-03T12:38:11.508Z,23.29
2023-07-03T12:40:45.294Z,22.80
2023-07-03T12:43:18.159Z,23.12
2023-07-03T12:45:52.935Z,22.84
2023-07-03T12:48:21.419Z,22.89
2023-07-03T12:50:49.968Z,23.19
2023-07-03T12:53:19.447Z,22.18
2023-07-03T12:55:51.635Z,22.34
2023-07-03T12:58:20.090Z,22.12
2023-07-03T13:00:47.098Z,22.09
2023-07-03T13:03:16.604Z,22.06
2023-07-03T13:05:43.340Z,22.14
2023-07-03T13:08:16.730Z,22.43
2023-07-03T13:11:00.717Z,22.33
2023-07-03T13:13:27.858Z,22.32
2023-07-03T13:15:54.516Z,22.41
2023-07-03T13:18:23.909Z,23.29
2023-07-03T13:21:01.776Z,23.21
2023-07-03T13:23:37.581Z,23.40
2023-07-03T13:26:08.692Z,23.65
2023-07-03T13:28:42.407Z,23.57
2023-07-03T13:31:14.859Z,23.37
2023-07-03T13:33:43.196Z,22.94
2023-07-03T13:36:22.805Z,22.90
2023-07-03T13:39:18.764Z,22.70
2023-07-03T13:41:47.679Z,22.22
2023-07-03T13:44:16.465Z,22.08
2023-07-03T13:46:44.768Z,22.34
2023-07-03T13:49:15.387Z,22.01
2023-07-03T13:51:43.022Z,21.89
2023-07-03T13:54:12.404Z,22.12
2023-07-03T13:56:43.283Z,22.42
2023-07-03T13:59:10.509Z,22.92
2023-07-03T14:01:38.742Z,22.57
2023-07-03T14:04:06.596Z,22.51
2023-07-03T14:06:33.713Z,22.49
2023-07-03T14:09:00.278Z,22.92
2023-07-03T14:11:26.936Z,22.71
2023-07-03T14:13:54.085Z,22.94
2023-07-03T14:16:20.775Z,22.65
2023-07-03T14:18:47.409Z,22.65
2023-07-03T14:21:16.318Z,23.78
2023-07-03T14:23:43.749Z,23.97
2023-07-03T14:26:12.641Z,24.35
2023-07-03T14:28:40.551Z,24.79
2023-07-03T14:31:09.262Z,23.51
2023-07-03T14:33:36.088Z,23.21
2023-07-03T14:36:02.833Z,23.86
2023-07-03T14:38:29.456Z,23.35
2023-07-03T14:40:57.617Z,23.11
2023-07-03T14:43:24.353Z,23.38
2023-07-03T14:45:51.444Z,23.88
2023-07-03T14:48:18.347Z,24.67
2023-07-03T14:50:45.020Z,24.36
2023-07-03T14:53:11.601Z,24.46
2023-07-03T14:55:38.350Z,24.59
2023-07-03T14:58:09.396Z,24.41
2023-07-03T15:00:38.005Z,23.92
2023-07-03T15:03:04.754Z,23.59
2023-07-03T15:05:31.457Z,23.51
2023-07-03T15:07:58.090Z,22.79
2023-07-03T15:10:24.651Z,23.35
2023-07-03T15:12:51.220Z,23.13
2023-07-03T15:15:17.848Z,23.64
2023-07-03T15:17:44.477Z,23.65
2023-07-03T15:20:11.729Z,23.41
2023-07-03T15:22:38.372Z,23.60
2023-07-03T15:25:05.159Z,22.94
2023-07-03T15:27:31.867Z,23.38
2023-07-03T15:29:58.421Z,23.44
2023-07-03T15:32:25.077Z,23.42
2023-07-03T15:34:54.037Z,23.11
2023-07-03T15:37:21.594Z,22.66
2023-07-03T15:39:48.134Z,23.10
2023-07-03T15:42:15.253Z,22.72
2023-07-03T15:44:42.376Z,22.79
2023-07-03T15:47:09.979Z,22.84
2023-07-03T15:49:37.440Z,22.62
2023-07-03T15:52:05.883Z,22.51
2023-07-03T15:54:35.798Z,22.55
2023-07-03T15:57:04.207Z,22.82
2023-07-03T15:59:31.004Z,22.87
2023-07-03T16:01:58.162Z,22.60
2023-07-03T16:04:26.019Z,22.81
2023-07-03T16:06:52.623Z,22.63
2023-07-03T16:09:19.311Z,22.36
2023-07-03T16:11:45.962Z,22.26
2023-07-03T16:14:12.504Z,22.42
2023-07-03T16:16:39.061Z,22.26
2023-07-03T16:19:05.578Z,22.34
2023-07-03T16:21:34.267Z,22.16
2023-07-03T16:24:03.871Z,22.17
2023-07-03T16:26:31.749Z,22.21
2023-07-03T16:28:58.636Z,22.15
2023-07-03T16:31:28.275Z,22.05
2023-07-03T16:33:57.890Z,21.99
2023-07-03T16:36:27.753Z,22.14
2023-07-03T16:38:56.763Z,22.32
2023-07-03T16:46:11.192Z,22.81
2023-07-03T16:48:58.924Z,22.89
2023-07-03T16:51:45.399Z,23.72
2023-07-03T16:54:31.920Z,23.28
2023-07-03T16:57:18.341Z,23.20
2023-07-03T16:59:51.231Z,23.90
2023-07-03T17:02:17.793Z,24.29
2023-07-03T17:04:44.364Z,24.34
2023-07-03T17:07:10.945Z,24.36
2023-07-03T17:09:37.436Z,23.80
2023-07-03T17:12:04.259Z,23.61
2023-07-03T17:14:32.463Z,23.41
2023-07-03T17:16:58.993Z,23.44
2023-07-03T17:19:25.617Z,23.42
2023-07-03T17:21:52.140Z,23.60
2023-07-03T17:24:18.669Z,23.58
2023-07-03T17:26:45.486Z,23.52
2023-07-03T17:29:12.142Z,23.40
2023-07-03T17:31:38.739Z,22.98
2023-07-03T17:34:05.297Z,22.92
2023-07-03T17:36:31.965Z,23.01
2023-07-03T17:38:58.589Z,22.65
2023-07-03T17:41:25.073Z,22.55
2023-07-03T17:43:52.405Z,22.78
2023-07-03T17:46:19.136Z,22.40
2023-07-03T17:48:45.853Z,22.43
2023-07-03T17:51:12.489Z,22.33
2023-07-03T17:53:40.880Z,22.45
2023-07-03T17:56:07.551Z,22.30
2023-07-03T17:58:34.092Z,22.41
2023-07-03T18:01:02.490Z,22.52
2023-07-03T18:03:29.997Z,22.39
2023-07-03T18:05:57.181Z,22.47
2023-07-03T18:08:25.004Z,22.61
2023-07-03T18:10:51.936Z,22.36
2023-07-03T18:13:18.573Z,22.42
2023-07-03T18:15:54.873Z,22.31
2023-07-03T18:18:21.706Z,22.41
2023-07-03T18:20:49.027Z,22.34
2023-07-03T18:23:15.645Z,22.28
2023-07-03T18:25:42.184Z,22.19
2023-07-03T18:28:09.111Z,22.27
2023-07-03T18:30:35.800Z,22.27
2023-07-03T18:33:02.404Z,22.25
2023-07-03T18:35:29.201Z,21.94
2023-07-03T18:37:55.721Z,21.86
2023-07-03T18:40:22.285Z,21.86
2023-07-03T18:42:48.805Z,21.73
2023-07-03T18:45:15.481Z,21.65
2023-07-03T18:47:42.024Z,21.55
2023-07-03T18:50:09.730Z,21.39
2023-07-03T18:52:36.239Z,21.15
2023-07-03T18:55:02.901Z,21.31
2023-07-03T18:57:29.365Z,21.29
2023-07-03T18:59:56.011Z,21.19
2023-07-03T19:02:22.611Z,21.16
2023-07-03T19:04:49.219Z,21.12
2023-07-03T19:07:15.751Z,20.88
2023-07-03T19:09:42.332Z,20.91
2023-07-03T19:12:09.145Z,21.00
2023-07-03T19:14:36.441Z,21.04
2023-07-03T19:17:03.125Z,21.02
2023-07-03T19:19:29.698Z,20.80
2023-07-03T19:21:56.362Z,20.70
2023-07-03T19:24:23.265Z,20.77
2023-07-03T19:26:50.387Z,20.64
2023-07-03T19:29:17.290Z,20.53
2023-07-03T19:31:44.226Z,20.57
2023-07-03T19:34:10.864Z,20.58
2023-07-03T19:36:37.579Z,20.43
2023-07-03T19:39:04.673Z,20.42
2023-07-03T19:41:31.412Z,20.25
2023-07-03T19:43:58.108Z,20.20
2023-07-03T19:46:24.916Z,20.10
2023-07-03T19:48:51.518Z,20.05
2023-07-03T19:51:18.048Z,20.14
2023-07-03T19:53:44.552Z,19.91
2023-07-03T19:56:16.281Z,19.78
2023-07-03T19:58:43.657Z,19.74
2023-07-03T20:01:12.128Z,19.74
2023-07-03T20:03:39.802Z,19.73
2023-07-03T20:06:18.734Z,19.71
2023-07-03T20:08:50.153Z,19.69
2023-07-03T20:11:17.698Z,19.61
2023-07-03T20:13:46.482Z,19.59
2023-07-03T20:16:13.174Z,19.62
2023-07-03T20:18:39.747Z,19.51
2023-07-03T20:21:08.435Z,19.56
2023-07-03T20:23:35.757Z,19.55
2023-07-03T20:26:04.525Z,19.39
2023-07-03T20:28:31.520Z,19.46
2023-07-03T20:30:58.174Z,19.47
2023-07-03T20:33:24.861Z,19.41
2023-07-03T20:36:13.842Z,19.42
2023-07-03T20:38:40.556Z,19.41
2023-07-03T20:41:10.171Z,19.44
2023-07-03T20:43:39.510Z,19.34
2023-07-03T20:46:15.021Z,19.18
2023-07-03T20:48:42.548Z,19.27
2023-07-03T20:51:13.452Z,19.28
2023-07-03T20:53:53.976Z,19.24
2023-07-03T20:56:31.880Z,19.25
2023-07-03T20:59:00.021Z,19.14
2023-07-03T21:01:28.312Z,19.14
2023-07-03T21:03:56.129Z,19.18
2023-07-03T21:06:25.788Z,19.03
2023-07-03T21:08:52.757Z,19.13
2023-07-03T21:11:21.306Z,19.01
2023-07-03T21:13:53.228Z,19.06
2023-07-03T21:16:22.536Z,19.04
2023-07-03T21:18:50.148Z,19.05
2023-07-03T21:21:19.341Z,19.05
2023-07-03T21:23:46.490Z,18.99
2023-07-03T21:26:16.200Z,19.00
2023-07-03T21:28:42.772Z,18.90
2023-07-03T21:31:13.525Z,18.90
2023-07-03T21:33:40.781Z,18.95
2023-07-03T21:36:11.736Z,18.95
2023-07-03T21:38:39.500Z,18.88
2023-07-03T21:41:06.667Z,18.86
2023-07-03T21:43:33.667Z,18.89
2023-07-03T21:46:12.680Z,18.91
2023-07-03T21:48:41.663Z,18.87
2023-07-03T21:51:11.701Z,18.85
2023-07-03T21:53:39.017Z,18.68
2023-07-03T21:56:06.781Z,18.72
2023-07-03T21:58:34.239Z,18.72
2023-07-03T22:01:02.157Z,18.72
2023-07-03T22:03:29.246Z,18.68
2023-07-03T22:05:55.973Z,18.73
2023-07-03T22:08:23.418Z,18.64
2023-07-03T22:10:50.679Z,18.60
2023-07-03T22:13:17.388Z,18.63
2023-07-03T22:15:44.481Z,18.63
2023-07-03T22:18:11.190Z,18.59
2023-07-03T22:20:37.660Z,18.60
2023-07-03T22:23:05.155Z,18.60
2023-07-03T22:25:31.623Z,18.53
2023-07-03T22:27:59.415Z,18.56
2023-07-03T22:30:25.915Z,18.55
2023-07-03T22:32:52.492Z,18.53
2023-07-03T22:35:19.006Z,18.51
2023-07-03T22:37:45.632Z,18.52
2023-07-03T22:40:13.647Z,18.48
2023-07-03T22:42:41.319Z,18.56
2023-07-03T22:45:10.462Z,18.51
2023-07-03T22:47:37.193Z,18.45
2023-07-03T22:50:03.900Z,18.48
2023-07-03T22:52:31.514Z,18.46
2023-07-03T22:54:59.827Z,18.41
2023-07-03T22:57:27.065Z,18.40
2023-07-03T22:59:54.745Z,18.41
2023-07-03T23:02:21.695Z,18.44
2023-07-03T23:04:48.653Z,18.42
2023-07-03T23:07:15.344Z,18.42
2023-07-03T23:09:43.960Z,18.33
2023-07-03T23:12:10.996Z,18.36
2023-07-03T23:14:37.620Z,18.36
2023-07-03T23:17:04.439Z,18.32
2023-07-03T23:19:32.640Z,18.29
2023-07-03T23:21:59.283Z,18.34
2023-07-03T23:24:26.253Z,18.35
2023-07-03T23:26:53.445Z,18.32
2023-07-03T23:29:21.955Z,18.32
2023-07-03T23:31:49.092Z,18.28
2023-07-03T23:34:15.790Z,18.34
2023-07-03T23:36:42.484Z,18.34
2023-07-03T23:39:11.956Z,18.36
2023-07-03T23:41:38.585Z,18.38
2023-07-03T23:44:05.759Z,18.35
2023-07-03T23:46:33.181Z,18.30
2023-07-03T23:49:03.194Z,18.31
2023-07-03T23:51:32.818Z,18.27
2023-07-03T23:53:59.975Z,18.21
2023-07-03T23:56:26.537Z,18.18
2023-07-03T23:58:53.011Z,18.15
